sensor_id;sensor_type;location;lat;lon;timestamp;pressure;altitude;pressure_sealevel;temperature;humidity
31717;BME280;18301;51.076;17.046;2023-05-10T00:00:00;100233.47;;;11.00;56.18
31717;BME280;18301;51.076;17.046;2023-05-10T00:05:02;100231.34;;;10.92;55.99
31717;BME280;18301;51.076;17.046;2023-05-10T00:10:04;100213.44;;;10.91;55.97
31717;BME280;18301;51.076;17.046;2023-05-10T00:15:06;100218.47;;;10.85;55.97
31717;BME280;18301;51.076;17.046;2023-05-10T00:20:08;100211.78;;;10.77;56.64
31717;BME280;18301;51.076;17.046;2023-05-10T00:25:10;100214.25;;;10.69;56.42
31717;BME280;18301;51.076;17.046;2023-05-10T00:30:11;100217.13;;;10.55;57.28
31717;BME280;18301;51.076;17.046;2023-05-10T00:35:13;100216.66;;;10.61;56.92
31717;BME280;18301;51.076;17.046;2023-05-10T00:40:15;100209.41;;;10.50;58.08
31717;BME280;18301;51.076;17.046;2023-05-10T00:45:17;100215.91;;;10.48;58.30
31717;BME280;18301;51.076;17.046;2023-05-10T00:50:18;100205.97;;;10.48;57.86
31717;BME280;18301;51.076;17.046;2023-05-10T00:55:20;100204.09;;;10.38;58.03
31717;BME280;18301;51.076;17.046;2023-05-10T01:00:22;100202.81;;;10.30;58.76
31717;BME280;18301;51.076;17.046;2023-05-10T01:05:24;100197.47;;;10.18;59.25
31717;BME280;18301;51.076;17.046;2023-05-10T01:10:26;100204.19;;;10.12;59.23
31717;BME280;18301;51.076;17.046;2023-05-10T01:15:27;100198.38;;;10.05;59.52
31717;BME280;18301;51.076;17.046;2023-05-10T01:20:33;100181.53;;;9.90;59.70
31717;BME280;18301;51.076;17.046;2023-05-10T01:47:04;100194.41;;;9.74;61.11
31717;BME280;18301;51.076;17.046;2023-05-10T01:52:12;100198.09;;;9.73;61.19
31717;BME280;18301;51.076;17.046;2023-05-10T01:57:16;100189.47;;;9.68;61.27
31717;BME280;18301;51.076;17.046;2023-05-10T02:02:20;100188.03;;;9.75;61.25
31717;BME280;18301;51.076;17.046;2023-05-10T02:07:23;100185.97;;;9.55;62.19
31717;BME280;18301;51.076;17.046;2023-05-10T02:12:26;100178.53;;;9.58;61.66
31717;BME280;18301;51.076;17.046;2023-05-10T02:17:30;100179.00;;;9.76;61.95
31717;BME280;18301;51.076;17.046;2023-05-10T02:22:32;100179.59;;;9.56;62.83
31717;BME280;18301;51.076;17.046;2023-05-10T02:27:34;100175.19;;;9.55;62.28
31717;BME280;18301;51.076;17.046;2023-05-10T02:32:38;100176.50;;;9.49;62.52
31717;BME280;18301;51.076;17.046;2023-05-10T02:37:41;100165.41;;;9.41;62.59
31717;BME280;18301;51.076;17.046;2023-05-10T02:42:44;100172.72;;;9.52;62.38
31717;BME280;18301;51.076;17.046;2023-05-10T02:47:48;100168.75;;;9.44;62.94
31717;BME280;18301;51.076;17.046;2023-05-10T02:52:51;100165.81;;;9.48;62.58
31717;BME280;18301;51.076;17.046;2023-05-10T02:57:58;100168.25;;;9.39;62.80
31717;BME280;18301;51.076;17.046;2023-05-10T03:03:01;100168.22;;;9.27;64.04
31717;BME280;18301;51.076;17.046;2023-05-10T03:08:03;100170.19;;;9.25;64.00
31717;BME280;18301;51.076;17.046;2023-05-10T03:18:22;100169.56;;;9.21;63.51
31717;BME280;18301;51.076;17.046;2023-05-10T03:28:34;100174.06;;;9.20;63.39
31717;BME280;18301;51.076;17.046;2023-05-10T03:33:45;100168.03;;;9.17;64.33
31717;BME280;18301;51.076;17.046;2023-05-10T03:38:47;100170.84;;;9.28;64.07
31717;BME280;18301;51.076;17.046;2023-05-10T03:43:48;100171.88;;;9.38;63.58
31717;BME280;18301;51.076;17.046;2023-05-10T03:48:50;100166.06;;;9.44;63.74
31717;BME280;18301;51.076;17.046;2023-05-10T03:53:51;100166.53;;;9.62;62.96
31717;BME280;18301;51.076;17.046;2023-05-10T03:58:53;100163.44;;;9.56;63.22
31717;BME280;18301;51.076;17.046;2023-05-10T04:03:54;100164.47;;;9.66;62.95
31717;BME280;18301;51.076;17.046;2023-05-10T04:08:56;100159.47;;;9.73;63.27
31717;BME280;18301;51.076;17.046;2023-05-10T04:14:00;100158.56;;;9.85;62.60
31717;BME280;18301;51.076;17.046;2023-05-10T04:19:02;100163.03;;;9.97;62.36
31717;BME280;18301;51.076;17.046;2023-05-10T04:24:05;100165.19;;;10.05;61.92
31717;BME280;18301;51.076;17.046;2023-05-10T04:29:06;100153.47;;;10.17;61.54
31717;BME280;18301;51.076;17.046;2023-05-10T04:34:08;100161.84;;;10.25;61.78
31717;BME280;18301;51.076;17.046;2023-05-10T04:39:09;100155.78;;;10.34;61.40
31717;BME280;18301;51.076;17.046;2023-05-10T04:44:11;100159.47;;;10.56;60.88
31717;BME280;18301;51.076;17.046;2023-05-10T04:49:12;100156.59;;;10.70;60.64
31717;BME280;18301;51.076;17.046;2023-05-10T04:54:14;100162.25;;;11.01;60.58
31717;BME280;18301;51.076;17.046;2023-05-10T04:59:16;100156.38;;;11.29;60.30
31717;BME280;18301;51.076;17.046;2023-05-10T05:04:18;100163.97;;;11.47;59.80
31717;BME280;18301;51.076;17.046;2023-05-10T05:09:19;100171.47;;;11.43;59.98
31717;BME280;18301;51.076;17.046;2023-05-10T05:14:21;100162.22;;;11.57;58.91
31717;BME280;18301;51.076;17.046;2023-05-10T05:19:22;100160.78;;;11.53;58.93
31717;BME280;18301;51.076;17.046;2023-05-10T05:24:24;100153.63;;;11.86;57.85
31717;BME280;18301;51.076;17.046;2023-05-10T05:29:25;100148.47;;;12.04;58.00
31717;BME280;18301;51.076;17.046;2023-05-10T05:34:27;100152.97;;;12.26;57.76
31717;BME280;18301;51.076;17.046;2023-05-10T05:39:28;100147.63;;;12.35;57.54
31717;BME280;18301;51.076;17.046;2023-05-10T05:44:30;100147.63;;;12.56;56.75
31717;BME280;18301;51.076;17.046;2023-05-10T05:49:32;100143.13;;;12.66;56.67
31717;BME280;18301;51.076;17.046;2023-05-10T05:54:33;100152.34;;;13.06;55.40
31717;BME280;18301;51.076;17.046;2023-05-10T05:59:35;100159.19;;;13.10;55.46
31717;BME280;18301;51.076;17.046;2023-05-10T06:04:36;100150.72;;;13.24;54.64
31717;BME280;18301;51.076;17.046;2023-05-10T06:09:38;100150.31;;;13.29;55.09
31717;BME280;18301;51.076;17.046;2023-05-10T06:14:39;100151.97;;;13.51;54.51
31717;BME280;18301;51.076;17.046;2023-05-10T06:19:41;100151.31;;;13.88;53.91
31717;BME280;18301;51.076;17.046;2023-05-10T06:24:42;100158.78;;;13.95;54.14
31717;BME280;18301;51.076;17.046;2023-05-10T06:29:44;100151.78;;;14.22;53.11
31717;BME280;18301;51.076;17.046;2023-05-10T06:34:46;100156.94;;;14.35;52.22
31717;BME280;18301;51.076;17.046;2023-05-10T06:39:47;100151.22;;;14.47;52.61
31717;BME280;18301;51.076;17.046;2023-05-10T06:44:49;100155.50;;;14.69;51.23
31717;BME280;18301;51.076;17.046;2023-05-10T06:49:51;100146.56;;;14.96;50.87
31717;BME280;18301;51.076;17.046;2023-05-10T06:54:52;100143.41;;;15.01;51.17
31717;BME280;18301;51.076;17.046;2023-05-10T06:59:54;100153.34;;;15.20;50.89
31717;BME280;18301;51.076;17.046;2023-05-10T07:04:57;100141.63;;;15.19;51.23
31717;BME280;18301;51.076;17.046;2023-05-10T07:10:03;100140.78;;;15.47;51.58
31717;BME280;18301;51.076;17.046;2023-05-10T07:15:05;100131.94;;;15.90;49.72
31717;BME280;18301;51.076;17.046;2023-05-10T07:20:08;100116.88;;;15.96;49.49
31717;BME280;18301;51.076;17.046;2023-05-10T07:25:09;100119.66;;;16.04;49.38
31717;BME280;18301;51.076;17.046;2023-05-10T07:30:11;100112.19;;;16.24;50.15
31717;BME280;18301;51.076;17.046;2023-05-10T07:35:13;100123.69;;;16.53;49.80
31717;BME280;18301;51.076;17.046;2023-05-10T07:40:15;100107.47;;;16.52;49.58
31717;BME280;18301;51.076;17.046;2023-05-10T07:45:16;100118.97;;;16.82;49.35
31717;BME280;18301;51.076;17.046;2023-05-10T07:50:18;100106.28;;;16.98;49.04
31717;BME280;18301;51.076;17.046;2023-05-10T07:55:20;100123.09;;;17.20;48.17
31717;BME280;18301;51.076;17.046;2023-05-10T08:00:22;100111.66;;;17.16;49.04
31717;BME280;18301;51.076;17.046;2023-05-10T08:05:24;100111.78;;;17.41;49.45
31717;BME280;18301;51.076;17.046;2023-05-10T08:10:25;100105.88;;;17.62;48.44
31717;BME280;18301;51.076;17.046;2023-05-10T08:15:27;100094.88;;;17.80;50.03
31717;BME280;18301;51.076;17.046;2023-05-10T08:20:28;100107.03;;;18.02;47.46
31717;BME280;18301;51.076;17.046;2023-05-10T08:25:29;100098.97;;;17.84;48.68
31717;BME280;18301;51.076;17.046;2023-05-10T08:30:32;100093.53;;;18.00;48.12
31717;BME280;18301;51.076;17.046;2023-05-10T08:35:33;100094.91;;;18.04;48.89
31717;BME280;18301;51.076;17.046;2023-05-10T08:40:43;100086.56;;;18.38;47.81
31717;BME280;18301;51.076;17.046;2023-05-10T08:45:45;100091.16;;;18.54;47.61
31717;BME280;18301;51.076;17.046;2023-05-10T08:50:48;100083.28;;;18.59;48.03
31717;BME280;18301;51.076;17.046;2023-05-10T08:55:52;100096.28;;;18.74;46.43
31717;BME280;18301;51.076;17.046;2023-05-10T09:00:54;100092.50;;;18.91;46.54
31717;BME280;18301;51.076;17.046;2023-05-10T09:05:56;100088.91;;;18.91;47.04
31717;BME280;18301;51.076;17.046;2023-05-10T09:11:00;100091.78;;;18.97;46.10
31717;BME280;18301;51.076;17.046;2023-05-10T09:16:03;100086.97;;;19.07;45.19
31717;BME280;18301;51.076;17.046;2023-05-10T09:21:21;100087.44;;;19.19;46.69
31717;BME280;18301;51.076;17.046;2023-05-10T09:26:23;100082.34;;;19.47;45.54
31717;BME280;18301;51.076;17.046;2023-05-10T09:31:46;100075.94;;;19.63;45.74
31717;BME280;18301;51.076;17.046;2023-05-10T09:36:55;100077.00;;;19.54;48.04
31717;BME280;18301;51.076;17.046;2023-05-10T09:41:58;100090.81;;;19.69;46.36
31717;BME280;18301;51.076;17.046;2023-05-10T09:47:02;100084.66;;;19.67;46.14
31717;BME280;18301;51.076;17.046;2023-05-10T09:52:06;100083.78;;;19.74;45.77
31717;BME280;18301;51.076;17.046;2023-05-10T09:57:18;100081.84;;;19.83;45.70
31717;BME280;18301;51.076;17.046;2023-05-10T10:02:28;100075.44;;;19.91;44.98
31717;BME280;18301;51.076;17.046;2023-05-10T10:07:30;100074.19;;;20.02;44.92
31717;BME280;18301;51.076;17.046;2023-05-10T10:12:32;100060.31;;;20.03;44.82
31717;BME280;18301;51.076;17.046;2023-05-10T10:17:35;100049.72;;;20.23;44.94
31717;BME280;18301;51.076;17.046;2023-05-10T10:22:37;100050.19;;;20.04;45.48
31717;BME280;18301;51.076;17.046;2023-05-10T10:43:43;100066.53;;;20.35;43.33
31717;BME280;18301;51.076;17.046;2023-05-10T10:48:49;100041.69;;;20.36;44.50
31717;BME280;18301;51.076;17.046;2023-05-10T10:53:53;100041.66;;;20.59;42.98
31717;BME280;18301;51.076;17.046;2023-05-10T10:58:59;100056.34;;;20.43;43.09
31717;BME280;18301;51.076;17.046;2023-05-10T11:09:07;100034.97;;;20.77;43.16
31717;BME280;18301;51.076;17.046;2023-05-10T11:14:09;100027.44;;;20.79;44.30
31717;BME280;18301;51.076;17.046;2023-05-10T11:19:12;100044.75;;;20.94;41.28
31717;BME280;18301;51.076;17.046;2023-05-10T11:24:20;100019.28;;;20.71;43.33
31717;BME280;18301;51.076;17.046;2023-05-10T11:29:22;100020.22;;;21.07;43.08
31717;BME280;18301;51.076;17.046;2023-05-10T11:34:31;100028.16;;;21.17;42.54
31717;BME280;18301;51.076;17.046;2023-05-10T11:39:35;100026.38;;;20.65;42.46
31717;BME280;18301;51.076;17.046;2023-05-10T11:44:36;100022.31;;;20.38;43.18
31717;BME280;18301;51.076;17.046;2023-05-10T11:49:38;100013.88;;;20.77;42.01
31717;BME280;18301;51.076;17.046;2023-05-10T11:55:06;100022.00;;;20.56;42.46
31717;BME280;18301;51.076;17.046;2023-05-10T12:00:08;100019.38;;;20.77;43.52
31717;BME280;18301;51.076;17.046;2023-05-10T12:05:09;100029.97;;;21.25;41.16
31717;BME280;18301;51.076;17.046;2023-05-10T12:10:12;100025.44;;;20.87;41.05
31717;BME280;18301;51.076;17.046;2023-05-10T12:15:23;100016.25;;;20.95;41.86
31717;BME280;18301;51.076;17.046;2023-05-10T12:20:27;100016.50;;;21.30;40.28
31717;BME280;18301;51.076;17.046;2023-05-10T12:25:33;100028.66;;;20.76;41.94
31717;BME280;18301;51.076;17.046;2023-05-10T12:30:36;100014.88;;;20.46;41.43
31717;BME280;18301;51.076;17.046;2023-05-10T12:35:48;100032.53;;;20.29;42.15
31717;BME280;18301;51.076;17.046;2023-05-10T12:40:50;100025.19;;;20.44;41.30
31717;BME280;18301;51.076;17.046;2023-05-10T12:45:52;100031.94;;;20.57;42.35
31717;BME280;18301;51.076;17.046;2023-05-10T12:50:54;100026.38;;;20.65;40.54
31717;BME280;18301;51.076;17.046;2023-05-10T12:55:56;100019.72;;;20.59;41.28
31717;BME280;18301;51.076;17.046;2023-05-10T13:00:58;100034.31;;;20.60;41.01
31717;BME280;18301;51.076;17.046;2023-05-10T13:06:00;100036.88;;;20.76;41.05
31717;BME280;18301;51.076;17.046;2023-05-10T13:11:02;100019.19;;;20.79;40.74
31717;BME280;18301;51.076;17.046;2023-05-10T13:16:04;100020.13;;;20.71;41.01
31717;BME280;18301;51.076;17.046;2023-05-10T13:21:06;100016.78;;;20.46;40.78
31717;BME280;18301;51.076;17.046;2023-05-10T13:26:08;100010.56;;;20.52;41.25
31717;BME280;18301;51.076;17.046;2023-05-10T13:31:10;100022.16;;;20.39;40.93
31717;BME280;18301;51.076;17.046;2023-05-10T13:36:11;100003.88;;;20.84;40.99
31717;BME280;18301;51.076;17.046;2023-05-10T13:41:13;100007.44;;;21.00;40.78
31717;BME280;18301;51.076;17.046;2023-05-10T13:46:14;100006.88;;;20.89;40.04
31717;BME280;18301;51.076;17.046;2023-05-10T13:51:16;99989.59;;;20.89;40.27
31717;BME280;18301;51.076;17.046;2023-05-10T13:56:17;99995.66;;;20.69;40.69
31717;BME280;18301;51.076;17.046;2023-05-10T14:01:19;99990.91;;;20.93;40.03
31717;BME280;18301;51.076;17.046;2023-05-10T14:06:21;99989.59;;;21.04;39.05
31717;BME280;18301;51.076;17.046;2023-05-10T14:11:22;99993.94;;;20.98;38.94
31717;BME280;18301;51.076;17.046;2023-05-10T14:16:25;99984.94;;;20.89;39.29
31717;BME280;18301;51.076;17.046;2023-05-10T14:21:27;99990.72;;;20.80;39.26
31717;BME280;18301;51.076;17.046;2023-05-10T14:26:30;99987.44;;;20.84;38.90
31717;BME280;18301;51.076;17.046;2023-05-10T14:31:32;99981.28;;;20.82;39.07
31717;BME280;18301;51.076;17.046;2023-05-10T14:36:34;99966.41;;;21.06;39.30
31717;BME280;18301;51.076;17.046;2023-05-10T14:41:35;99966.50;;;20.98;39.66
31717;BME280;18301;51.076;17.046;2023-05-10T14:46:37;99972.16;;;21.11;40.31
31717;BME280;18301;51.076;17.046;2023-05-10T14:51:38;99981.34;;;21.04;39.01
31717;BME280;18301;51.076;17.046;2023-05-10T14:56:40;99986.06;;;21.10;38.88
31717;BME280;18301;51.076;17.046;2023-05-10T15:01:42;99970.69;;;21.30;38.86
31717;BME280;18301;51.076;17.046;2023-05-10T15:06:44;99985.78;;;20.90;38.19
31717;BME280;18301;51.076;17.046;2023-05-10T15:11:46;99985.34;;;20.86;38.70
31717;BME280;18301;51.076;17.046;2023-05-10T15:16:47;99974.88;;;20.75;38.65
31717;BME280;18301;51.076;17.046;2023-05-10T15:21:49;99986.84;;;20.74;38.05
31717;BME280;18301;51.076;17.046;2023-05-10T15:26:50;99985.72;;;20.54;39.62
31717;BME280;18301;51.076;17.046;2023-05-10T15:31:52;99985.06;;;20.81;39.39
31717;BME280;18301;51.076;17.046;2023-05-10T15:36:54;99975.59;;;20.84;38.91
31717;BME280;18301;51.076;17.046;2023-05-10T15:41:55;99978.16;;;20.85;39.12
31717;BME280;18301;51.076;17.046;2023-05-10T15:46:57;99972.28;;;21.03;39.39
31717;BME280;18301;51.076;17.046;2023-05-10T15:51:58;99981.19;;;21.27;39.39
31717;BME280;18301;51.076;17.046;2023-05-10T15:57:00;99979.63;;;21.03;39.34
31717;BME280;18301;51.076;17.046;2023-05-10T16:02:02;99975.34;;;21.15;38.72
31717;BME280;18301;51.076;17.046;2023-05-10T16:07:04;99991.56;;;21.10;38.55
31717;BME280;18301;51.076;17.046;2023-05-10T16:12:07;99976.88;;;21.03;39.40
31717;BME280;18301;51.076;17.046;2023-05-10T16:17:08;99984.66;;;20.99;39.59
31717;BME280;18301;51.076;17.046;2023-05-10T16:22:10;99985.13;;;21.03;39.04
31717;BME280;18301;51.076;17.046;2023-05-10T16:27:11;99980.41;;;20.97;39.76
31717;BME280;18301;51.076;17.046;2023-05-10T16:32:13;99992.97;;;21.06;38.92
31717;BME280;18301;51.076;17.046;2023-05-10T16:37:15;99988.06;;;20.86;38.84
31717;BME280;18301;51.076;17.046;2023-05-10T16:42:16;99984.69;;;20.69;39.73
31717;BME280;18301;51.076;17.046;2023-05-10T16:47:18;99995.13;;;20.51;39.93
31717;BME280;18301;51.076;17.046;2023-05-10T16:52:19;99991.59;;;20.28;40.50
31717;BME280;18301;51.076;17.046;2023-05-10T16:57:21;99994.53;;;20.26;40.94
31717;BME280;18301;51.076;17.046;2023-05-10T17:02:23;99999.31;;;20.09;41.41
31717;BME280;18301;51.076;17.046;2023-05-10T17:07:24;99999.09;;;19.96;41.98
31717;BME280;18301;51.076;17.046;2023-05-10T17:12:26;100005.56;;;19.80;42.22
31717;BME280;18301;51.076;17.046;2023-05-10T17:17:28;100010.97;;;19.57;42.64
31717;BME280;18301;51.076;17.046;2023-05-10T17:22:30;100011.22;;;19.47;44.23
31717;BME280;18301;51.076;17.046;2023-05-10T17:27:31;100024.56;;;19.42;44.31
31717;BME280;18301;51.076;17.046;2023-05-10T17:32:33;100027.97;;;19.44;43.66
31717;BME280;18301;51.076;17.046;2023-05-10T17:37:34;100033.06;;;19.24;44.98
31717;BME280;18301;51.076;17.046;2023-05-10T17:42:36;100035.13;;;19.22;44.57
31717;BME280;18301;51.076;17.046;2023-05-10T17:47:37;100035.34;;;19.13;45.37
31717;BME280;18301;51.076;17.046;2023-05-10T17:52:39;100028.84;;;19.05;45.71
31717;BME280;18301;51.076;17.046;2023-05-10T17:57:40;100032.34;;;18.91;46.33
31717;BME280;18301;51.076;17.046;2023-05-10T18:02:42;100039.53;;;18.84;47.12
31717;BME280;18301;51.076;17.046;2023-05-10T18:07:43;100047.06;;;18.74;47.54
31717;BME280;18301;51.076;17.046;2023-05-10T18:12:45;100056.31;;;18.73;46.81
31717;BME280;18301;51.076;17.046;2023-05-10T18:17:48;100057.31;;;18.63;47.12
31717;BME280;18301;51.076;17.046;2023-05-10T18:22:49;100065.53;;;18.55;47.60
31717;BME280;18301;51.076;17.046;2023-05-10T18:27:51;100061.09;;;18.46;47.76
31717;BME280;18301;51.076;17.046;2023-05-10T18:32:53;100058.91;;;18.42;48.01
31717;BME280;18301;51.076;17.046;2023-05-10T18:37:55;100071.00;;;18.31;49.44
31717;BME280;18301;51.076;17.046;2023-05-10T18:42:56;100071.53;;;18.26;48.81
31717;BME280;18301;51.076;17.046;2023-05-10T18:47:58;100081.63;;;18.26;49.20
31717;BME280;18301;51.076;17.046;2023-05-10T18:52:59;100089.63;;;18.19;49.91
31717;BME280;18301;51.076;17.046;2023-05-10T18:58:01;100088.06;;;18.00;50.47
31717;BME280;18301;51.076;17.046;2023-05-10T19:03:02;100088.75;;;18.02;49.70
31717;BME280;18301;51.076;17.046;2023-05-10T19:08:04;100100.72;;;18.01;50.15
31717;BME280;18301;51.076;17.046;2023-05-10T19:13:06;100106.97;;;17.85;50.45
31717;BME280;18301;51.076;17.046;2023-05-10T19:18:07;100112.91;;;17.72;51.37
31717;BME280;18301;51.076;17.046;2023-05-10T19:23:09;100109.56;;;17.44;51.34
31717;BME280;18301;51.076;17.046;2023-05-10T19:28:11;100115.53;;;17.40;51.74
31717;BME280;18301;51.076;17.046;2023-05-10T19:33:12;100120.22;;;17.21;53.19
31717;BME280;18301;51.076;17.046;2023-05-10T19:38:14;100107.84;;;17.01;52.72
31717;BME280;18301;51.076;17.046;2023-05-10T19:43:16;100123.03;;;17.03;52.58
31717;BME280;18301;51.076;17.046;2023-05-10T19:48:17;100124.19;;;17.01;52.88
31717;BME280;18301;51.076;17.046;2023-05-10T19:53:19;100118.00;;;16.91;52.96
31717;BME280;18301;51.076;17.046;2023-05-10T19:58:21;100116.91;;;16.84;53.79
31717;BME280;18301;51.076;17.046;2023-05-10T20:03:23;100121.84;;;16.80;53.65
31717;BME280;18301;51.076;17.046;2023-05-10T20:08:25;100126.91;;;16.75;53.76
31717;BME280;18301;51.076;17.046;2023-05-10T20:13:27;100132.81;;;16.70;54.39
31717;BME280;18301;51.076;17.046;2023-05-10T20:18:28;100134.97;;;16.41;55.60
31717;BME280;18301;51.076;17.046;2023-05-10T20:23:30;100146.44;;;16.26;55.51
31717;BME280;18301;51.076;17.046;2023-05-10T20:28:31;100147.06;;;16.20;55.57
31717;BME280;18301;51.076;17.046;2023-05-10T20:33:33;100141.97;;;16.25;55.60
31717;BME280;18301;51.076;17.046;2023-05-10T20:38:35;100144.06;;;16.31;54.83
31717;BME280;18301;51.076;17.046;2023-05-10T20:43:37;100147.91;;;16.39;54.93
31717;BME280;18301;51.076;17.046;2023-05-10T20:48:38;100142.53;;;16.29;54.89
31717;BME280;18301;51.076;17.046;2023-05-10T20:53:40;100140.03;;;16.36;55.09
31717;BME280;18301;51.076;17.046;2023-05-10T20:58:42;100147.72;;;16.40;54.87
31717;BME280;18301;51.076;17.046;2023-05-10T21:03:43;100150.00;;;16.45;54.18
31717;BME280;18301;51.076;17.046;2023-05-10T21:08:45;100143.75;;;16.34;54.30
31717;BME280;18301;51.076;17.046;2023-05-10T21:13:46;100152.31;;;16.40;54.10
31717;BME280;18301;51.076;17.046;2023-05-10T21:18:48;100159.09;;;16.36;54.26
31717;BME280;18301;51.076;17.046;2023-05-10T21:23:49;100158.41;;;16.33;53.93
31717;BME280;18301;51.076;17.046;2023-05-10T21:28:51;100152.09;;;16.33;53.55
31717;BME280;18301;51.076;17.046;2023-05-10T21:33:53;100157.53;;;16.33;53.30
31717;BME280;18301;51.076;17.046;2023-05-10T21:38:54;100162.16;;;16.32;53.42
31717;BME280;18301;51.076;17.046;2023-05-10T21:43:56;100161.44;;;16.30;53.45
31717;BME280;18301;51.076;17.046;2023-05-10T21:48:57;100158.41;;;16.33;53.28
31717;BME280;18301;51.076;17.046;2023-05-10T21:53:59;100171.38;;;16.22;53.59
31717;BME280;18301;51.076;17.046;2023-05-10T21:59:00;100165.53;;;16.34;52.77
31717;BME280;18301;51.076;17.046;2023-05-10T22:04:01;100161.72;;;16.09;53.02
31717;BME280;18301;51.076;17.046;2023-05-10T22:09:03;100179.53;;;16.04;52.96
31717;BME280;18301;51.076;17.046;2023-05-10T22:14:05;100176.13;;;16.02;52.63
31717;BME280;18301;51.076;17.046;2023-05-10T22:19:06;100184.19;;;15.94;52.60
31717;BME280;18301;51.076;17.046;2023-05-10T22:24:08;100173.81;;;15.79;52.22
31717;BME280;18301;51.076;17.046;2023-05-10T22:29:09;100177.97;;;15.83;52.37
31717;BME280;18301;51.076;17.046;2023-05-10T22:34:11;100177.06;;;15.93;51.93
31717;BME280;18301;51.076;17.046;2023-05-10T22:39:13;100183.09;;;15.86;52.01
31717;BME280;18301;51.076;17.046;2023-05-10T22:44:14;100180.53;;;15.85;51.89
31717;BME280;18301;51.076;17.046;2023-05-10T22:49:16;100181.69;;;15.82;52.14
31717;BME280;18301;51.076;17.046;2023-05-10T22:54:17;100182.81;;;15.90;51.35
31717;BME280;18301;51.076;17.046;2023-05-10T22:59:19;100193.13;;;15.86;51.72
31717;BME280;18301;51.076;17.046;2023-05-10T23:04:21;100189.75;;;15.74;52.00
31717;BME280;18301;51.076;17.046;2023-05-10T23:09:22;100190.56;;;15.84;51.66
31717;BME280;18301;51.076;17.046;2023-05-10T23:14:24;100199.78;;;15.74;51.91
31717;BME280;18301;51.076;17.046;2023-05-10T23:19:25;100192.78;;;15.71;51.94
31717;BME280;18301;51.076;17.046;2023-05-10T23:24:26;100196.09;;;15.65;52.16
31717;BME280;18301;51.076;17.046;2023-05-10T23:29:28;100192.25;;;15.58;52.24
31717;BME280;18301;51.076;17.046;2023-05-10T23:34:29;100200.75;;;15.45;52.66
31717;BME280;18301;51.076;17.046;2023-05-10T23:39:31;100197.94;;;15.37;52.55
31717;BME280;18301;51.076;17.046;2023-05-10T23:44:32;100194.53;;;15.25;52.67
31717;BME280;18301;51.076;17.046;2023-05-10T23:49:34;100198.28;;;15.24;52.63
31717;BME280;18301;51.076;17.046;2023-05-10T23:54:35;100202.56;;;15.17;53.21
31717;BME280;18301;51.076;17.046;2023-05-10T23:59:37;100205.44;;;15.15;53.05
